createdAt,value
2022-11-29T00:00:55.011Z,8.54
2022-11-29T00:01:55.103Z,8.55
2022-11-29T00:02:55.051Z,8.55
2022-11-29T00:03:54.983Z,8.55
2022-11-29T00:04:54.951Z,8.54
2022-11-29T00:05:54.940Z,8.55
2022-11-29T00:06:54.923Z,8.55
2022-11-29T00:07:55.018Z,8.54
2022-11-29T00:08:54.924Z,8.54
2022-11-29T00:09:54.893Z,8.55
2022-11-29T00:10:54.882Z,8.54
2022-11-29T00:11:54.873Z,8.55
2022-11-29T00:12:54.854Z,8.55
2022-11-29T00:13:54.852Z,8.54
2022-11-29T00:14:54.856Z,8.54
2022-11-29T00:15:54.832Z,8.55
2022-11-29T00:16:54.871Z,8.55
2022-11-29T00:17:54.803Z,8.53
2022-11-29T00:18:54.789Z,8.54
2022-11-29T00:19:54.804Z,8.55
2022-11-29T00:20:54.769Z,8.54
2022-11-29T00:21:54.756Z,8.57
2022-11-29T00:22:54.743Z,8.57
2022-11-29T00:23:55.034Z,8.55
2022-11-29T00:24:54.745Z,8.57
2022-11-29T00:25:54.711Z,8.57
2022-11-29T00:26:54.695Z,8.57
2022-11-29T00:27:54.685Z,8.55
2022-11-29T00:28:54.681Z,8.55
2022-11-29T00:29:54.701Z,8.57
2022-11-29T00:30:54.676Z,8.57
2022-11-29T00:31:54.656Z,8.57
2022-11-29T00:32:54.632Z,8.57
2022-11-29T00:33:54.622Z,8.57
2022-11-29T00:34:58.247Z,8.57
2022-11-29T00:35:54.596Z,8.55
2022-11-29T00:36:54.586Z,8.55
2022-11-29T00:37:54.581Z,8.55
2022-11-29T00:38:54.565Z,8.55
2022-11-29T00:39:54.557Z,8.55
2022-11-29T00:40:54.569Z,8.57
2022-11-29T00:41:54.534Z,8.55
2022-11-29T00:42:54.516Z,8.55
2022-11-29T00:43:54.514Z,8.55
2022-11-29T00:44:54.504Z,8.55
2022-11-29T00:45:54.533Z,8.55
2022-11-29T00:46:54.496Z,8.57
2022-11-29T00:47:54.465Z,8.55
2022-11-29T00:48:54.454Z,8.55
2022-11-29T00:49:54.466Z,8.58
2022-11-29T00:50:54.427Z,8.57
2022-11-29T00:51:54.425Z,8.58
2022-11-29T00:52:54.408Z,8.58
2022-11-29T00:53:54.404Z,8.60
2022-11-29T00:54:54.407Z,8.60
2022-11-29T00:55:54.378Z,8.60
2022-11-29T00:56:54.386Z,8.58
2022-11-29T00:57:54.355Z,8.58
2022-11-29T00:58:54.346Z,8.58
2022-11-29T00:59:54.359Z,8.58
2022-11-29T01:00:54.417Z,8.60
2022-11-29T01:01:54.335Z,8.58
2022-11-29T01:02:54.296Z,8.58
2022-11-29T01:03:54.294Z,8.57
2022-11-29T01:04:54.305Z,8.55
2022-11-29T01:05:54.267Z,8.54
2022-11-29T01:06:54.258Z,8.53
2022-11-29T01:07:54.307Z,8.53
2022-11-29T01:08:54.230Z,8.53
2022-11-29T01:09:54.246Z,8.51
2022-11-29T01:10:54.233Z,8.54
2022-11-29T01:11:54.208Z,8.53
2022-11-29T01:12:54.187Z,8.53
2022-11-29T01:13:54.203Z,8.50
2022-11-29T01:14:54.167Z,8.50
2022-11-29T01:15:54.186Z,8.53
2022-11-29T01:16:54.184Z,8.51
2022-11-29T01:17:54.137Z,8.51
2022-11-29T01:18:54.119Z,8.48
2022-11-29T01:19:54.116Z,8.48
2022-11-29T01:20:54.119Z,8.48
2022-11-29T01:21:54.096Z,8.50
2022-11-29T01:22:54.077Z,8.48
2022-11-29T01:23:54.078Z,8.48
2022-11-29T01:24:54.057Z,8.50
2022-11-29T01:25:54.068Z,8.50
2022-11-29T01:26:54.038Z,8.51
2022-11-29T01:27:54.027Z,8.51
2022-11-29T01:28:54.018Z,8.51
2022-11-29T01:29:53.998Z,8.51
2022-11-29T01:30:54.046Z,8.51
2022-11-29T01:31:53.978Z,8.51
2022-11-29T01:32:53.977Z,8.51
2022-11-29T01:33:53.965Z,8.51
2022-11-29T01:34:53.949Z,8.51
2022-11-29T01:35:53.964Z,8.53
2022-11-29T01:36:53.948Z,8.53
2022-11-29T01:37:53.910Z,8.54
2022-11-29T01:38:53.901Z,8.54
2022-11-29T01:39:53.888Z,8.53
2022-11-29T01:40:53.879Z,8.54
2022-11-29T01:41:53.890Z,8.55
2022-11-29T01:42:53.859Z,8.54
2022-11-29T01:43:53.848Z,8.54
2022-11-29T01:44:53.837Z,8.55
2022-11-29T01:45:53.909Z,8.54
2022-11-29T01:46:53.811Z,8.53
2022-11-29T01:47:53.830Z,8.53
2022-11-29T01:48:53.791Z,8.54
2022-11-29T01:49:53.778Z,8.51
2022-11-29T01:50:53.769Z,8.50
2022-11-29T01:51:53.757Z,8.51
2022-11-29T01:52:53.768Z,8.50
2022-11-29T01:53:53.742Z,8.50
2022-11-29T01:54:53.721Z,8.51
2022-11-29T01:55:53.770Z,8.50
2022-11-29T01:56:53.708Z,8.50
2022-11-29T01:57:53.717Z,8.47
2022-11-29T01:58:53.679Z,8.44
2022-11-29T01:59:53.671Z,8.42
2022-11-29T02:00:53.707Z,8.37
2022-11-29T02:01:53.661Z,8.36
2022-11-29T02:02:53.703Z,8.36
2022-11-29T02:03:53.632Z,8.37
2022-11-29T02:04:53.612Z,8.39
2022-11-29T02:05:53.602Z,8.40
2022-11-29T02:06:53.594Z,8.39
2022-11-29T02:07:53.637Z,8.42
2022-11-29T02:08:53.571Z,8.42
2022-11-29T02:09:53.568Z,8.44
2022-11-29T02:10:53.558Z,8.44
2022-11-29T02:11:53.543Z,8.45
2022-11-29T02:12:53.530Z,8.45
2022-11-29T02:13:53.541Z,8.47
2022-11-29T02:14:53.510Z,8.48
2022-11-29T02:15:53.554Z,8.47
2022-11-29T02:16:56.561Z,8.50
2022-11-29T02:17:53.481Z,8.50
2022-11-29T02:18:53.492Z,8.50
2022-11-29T02:19:53.459Z,8.50
2022-11-29T02:20:53.444Z,8.48
2022-11-29T02:21:53.432Z,8.47
2022-11-29T02:22:53.421Z,8.50
2022-11-29T02:23:53.440Z,8.50
2022-11-29T02:24:53.393Z,8.51
2022-11-29T02:25:53.390Z,8.51
2022-11-29T02:26:53.379Z,8.51
2022-11-29T02:27:53.371Z,8.50
2022-11-29T02:28:53.359Z,8.51
2022-11-29T02:29:53.374Z,8.51
2022-11-29T02:30:53.366Z,8.48
2022-11-29T02:31:53.335Z,8.44
2022-11-29T02:32:53.314Z,8.44
2022-11-29T02:33:53.304Z,8.40
2022-11-29T02:34:53.314Z,8.42
2022-11-29T02:35:53.286Z,8.42
2022-11-29T02:36:53.276Z,8.42
2022-11-29T02:37:53.263Z,8.42
2022-11-29T02:38:53.244Z,8.40
2022-11-29T02:39:53.270Z,8.44
2022-11-29T02:40:53.223Z,8.44
2022-11-29T02:41:53.222Z,8.44
2022-11-29T02:42:56.836Z,8.44
2022-11-29T02:43:53.203Z,8.44
2022-11-29T02:44:53.204Z,8.42
2022-11-29T02:45:53.224Z,8.40
2022-11-29T02:46:53.163Z,8.37
2022-11-29T02:47:53.154Z,8.37
2022-11-29T02:48:53.141Z,8.39
2022-11-29T02:49:53.156Z,8.39
2022-11-29T02:50:53.126Z,8.39
2022-11-29T02:51:53.106Z,8.42
2022-11-29T02:52:53.096Z,8.44
2022-11-29T02:53:53.096Z,8.44
2022-11-29T02:54:53.102Z,8.44
2022-11-29T02:55:53.075Z,8.45
2022-11-29T02:56:53.061Z,8.45
2022-11-29T02:57:53.052Z,8.47
2022-11-29T02:58:53.034Z,8.45
2022-11-29T02:59:53.025Z,8.47
2022-11-29T03:00:53.035Z,8.47
2022-11-29T03:01:53.085Z,8.45
2022-11-29T03:02:53.048Z,8.45
2022-11-29T03:03:52.989Z,8.45
2022-11-29T03:04:52.966Z,8.48
2022-11-29T03:05:52.965Z,8.48
2022-11-29T03:06:52.965Z,8.50
2022-11-29T03:07:52.969Z,8.51
2022-11-29T03:08:52.924Z,8.51
2022-11-29T03:09:52.917Z,8.51
2022-11-29T03:10:52.911Z,8.51
2022-11-29T03:11:52.914Z,8.53
2022-11-29T03:12:52.907Z,8.53
2022-11-29T03:13:52.880Z,8.54
2022-11-29T03:14:52.865Z,8.53
2022-11-29T03:15:52.942Z,8.54
2022-11-29T03:16:52.867Z,8.54
2022-11-29T03:17:52.855Z,8.54
2022-11-29T03:18:52.824Z,8.54
2022-11-29T03:19:52.817Z,8.54
2022-11-29T03:20:52.797Z,8.54
2022-11-29T03:21:52.794Z,8.54
2022-11-29T03:22:52.806Z,8.54
2022-11-29T03:23:52.768Z,8.54
2022-11-29T03:24:52.756Z,8.54
2022-11-29T03:25:52.748Z,8.55
2022-11-29T03:26:52.737Z,8.54
2022-11-29T03:27:52.725Z,8.53
2022-11-29T03:28:52.738Z,8.54
2022-11-29T03:29:52.700Z,8.53
2022-11-29T03:30:52.717Z,8.54
2022-11-29T03:31:52.678Z,8.53
2022-11-29T03:32:52.668Z,8.53
2022-11-29T03:33:52.687Z,8.53
2022-11-29T03:34:56.940Z,8.53
2022-11-29T03:35:52.646Z,8.53
2022-11-29T03:36:52.626Z,8.53
2022-11-29T03:37:52.620Z,8.53
2022-11-29T03:38:52.627Z,8.53
2022-11-29T03:39:52.598Z,8.51
2022-11-29T03:40:52.577Z,8.51
2022-11-29T03:41:52.568Z,8.51
2022-11-29T03:42:52.558Z,8.53
2022-11-29T03:43:52.567Z,8.54
2022-11-29T03:44:52.539Z,8.54
2022-11-29T03:45:52.570Z,8.54
2022-11-29T03:46:52.517Z,8.54
2022-11-29T03:47:52.508Z,8.54
2022-11-29T03:48:52.519Z,8.53
2022-11-29T03:49:52.485Z,8.53
2022-11-29T03:50:52.469Z,8.53
2022-11-29T03:51:52.457Z,8.53
2022-11-29T03:52:52.447Z,8.53
2022-11-29T03:53:52.437Z,8.53
2022-11-29T03:54:52.450Z,8.53
2022-11-29T03:55:52.418Z,8.51
2022-11-29T03:56:52.399Z,8.51
2022-11-29T03:57:52.398Z,8.51
2022-11-29T03:58:52.379Z,8.53
2022-11-29T03:59:52.398Z,8.50
2022-11-29T04:00:52.360Z,8.47
2022-11-29T04:01:52.443Z,8.45
2022-11-29T04:02:52.393Z,8.44
2022-11-29T04:03:52.329Z,8.42
2022-11-29T04:04:52.339Z,8.44
2022-11-29T04:05:52.311Z,8.42
2022-11-29T04:06:52.299Z,8.44
2022-11-29T04:07:52.316Z,8.44
2022-11-29T04:08:52.277Z,8.45
2022-11-29T04:09:52.287Z,8.44
2022-11-29T04:10:52.259Z,8.40
2022-11-29T04:11:52.250Z,8.40
2022-11-29T04:12:52.239Z,8.40
2022-11-29T04:13:52.219Z,8.40
2022-11-29T04:14:52.230Z,8.42
2022-11-29T04:15:52.231Z,8.42
2022-11-29T04:16:52.190Z,8.42
2022-11-29T04:17:52.171Z,8.45
2022-11-29T04:18:52.171Z,8.47
2022-11-29T04:19:52.182Z,8.47
2022-11-29T04:20:52.149Z,8.47
2022-11-29T04:21:52.138Z,8.47
2022-11-29T04:22:52.124Z,8.48
2022-11-29T04:23:52.112Z,8.48
2022-11-29T04:24:52.099Z,8.50
2022-11-29T04:25:52.111Z,8.48
2022-11-29T04:26:52.075Z,8.48
2022-11-29T04:27:52.070Z,8.48
2022-11-29T04:28:52.060Z,8.48
2022-11-29T04:29:52.040Z,8.50
2022-11-29T04:30:52.099Z,8.48
2022-11-29T04:31:52.023Z,8.47
2022-11-29T04:32:52.012Z,8.45
2022-11-29T04:33:52.000Z,8.45
2022-11-29T04:34:51.991Z,8.44
2022-11-29T04:35:51.985Z,8.45
2022-11-29T04:36:51.989Z,8.47
2022-11-29T04:37:51.953Z,8.44
2022-11-29T04:38:51.953Z,8.40
2022-11-29T04:39:51.932Z,8.36
2022-11-29T04:40:51.951Z,8.35
2022-11-29T04:41:51.932Z,8.33
2022-11-29T04:42:51.902Z,8.35
2022-11-29T04:43:51.889Z,8.35
2022-11-29T04:44:51.886Z,8.36
2022-11-29T04:45:51.892Z,8.39
2022-11-29T04:46:51.862Z,8.39
2022-11-29T04:47:51.873Z,8.40
2022-11-29T04:48:51.846Z,8.39
2022-11-29T04:49:51.823Z,8.35
2022-11-29T04:50:51.847Z,8.33
2022-11-29T04:51:51.801Z,8.30
2022-11-29T04:52:51.794Z,8.30
2022-11-29T04:53:51.780Z,8.30
2022-11-29T04:54:51.770Z,8.30
2022-11-29T04:55:51.763Z,8.35
2022-11-29T04:56:51.775Z,8.33
2022-11-29T04:57:51.733Z,8.33
2022-11-29T04:58:51.725Z,8.35
2022-11-29T04:59:51.715Z,8.35
2022-11-29T05:00:51.702Z,8.36
2022-11-29T05:01:51.728Z,8.37
2022-11-29T05:02:51.729Z,8.37
2022-11-29T05:03:56.853Z,8.39
2022-11-29T05:04:52.662Z,8.44
2022-11-29T05:05:51.644Z,8.44
2022-11-29T05:06:51.663Z,8.45
2022-11-29T05:07:51.659Z,8.45
2022-11-29T05:08:51.613Z,8.45
2022-11-29T05:09:51.613Z,8.47
2022-11-29T05:10:51.594Z,8.48
2022-11-29T05:11:51.583Z,8.50
2022-11-29T05:12:51.593Z,8.48
2022-11-29T05:13:51.564Z,8.50
2022-11-29T05:14:51.553Z,8.51
2022-11-29T05:15:51.596Z,8.50
2022-11-29T05:16:51.532Z,8.51
2022-11-29T05:17:51.544Z,8.53
2022-11-29T05:18:51.506Z,8.53
2022-11-29T05:19:51.494Z,8.51
2022-11-29T05:20:51.486Z,8.53
2022-11-29T05:21:51.475Z,8.53
2022-11-29T05:22:51.484Z,8.54
2022-11-29T05:23:51.456Z,8.54
2022-11-29T05:24:51.444Z,8.55
2022-11-29T05:25:51.425Z,8.54
2022-11-29T05:26:51.417Z,8.54
2022-11-29T05:27:51.414Z,8.54
2022-11-29T05:28:51.434Z,8.54
2022-11-29T05:29:51.386Z,8.57
2022-11-29T05:30:51.408Z,8.58
2022-11-29T05:31:51.362Z,8.58
2022-11-29T05:32:51.353Z,8.57
2022-11-29T05:33:51.345Z,8.57
2022-11-29T05:34:51.569Z,8.55
2022-11-29T05:35:51.324Z,8.53
2022-11-29T05:36:51.305Z,8.53
2022-11-29T05:37:51.297Z,8.53
2022-11-29T05:38:51.286Z,8.54
2022-11-29T05:39:51.295Z,8.54
2022-11-29T05:40:51.271Z,8.55
2022-11-29T05:41:51.255Z,8.54
2022-11-29T05:42:51.267Z,8.55
2022-11-29T05:43:51.234Z,8.57
2022-11-29T05:44:51.239Z,8.57
2022-11-29T05:45:51.215Z,8.58
2022-11-29T05:46:51.215Z,8.60
2022-11-29T05:47:51.187Z,8.62
2022-11-29T05:48:51.176Z,8.62
2022-11-29T05:49:51.198Z,8.62
2022-11-29T05:50:51.159Z,8.63
2022-11-29T05:51:51.146Z,8.65
2022-11-29T05:52:51.127Z,8.66
2022-11-29T05:53:51.126Z,8.66
2022-11-29T05:54:51.108Z,8.66
2022-11-29T05:55:51.125Z,8.66
2022-11-29T05:56:51.087Z,8.66
2022-11-29T05:57:51.074Z,8.68
2022-11-29T05:58:51.064Z,8.68
2022-11-29T05:59:51.062Z,8.68
2022-11-29T06:00:51.059Z,8.69
2022-11-29T06:01:51.065Z,8.71
2022-11-29T06:02:51.058Z,8.72
2022-11-29T06:03:51.007Z,8.71
2022-11-29T06:04:50.988Z,8.71
2022-11-29T06:05:51.009Z,8.71
2022-11-29T06:06:50.969Z,8.72
2022-11-29T06:07:51.005Z,8.71
2022-11-29T06:08:50.967Z,8.69
2022-11-29T06:09:50.937Z,8.71
2022-11-29T06:10:50.929Z,8.71
2022-11-29T06:11:50.938Z,8.69
2022-11-29T06:12:50.905Z,8.68
2022-11-29T06:13:50.910Z,8.68
2022-11-29T06:14:50.888Z,8.69
2022-11-29T06:15:50.918Z,8.68
2022-11-29T06:16:50.879Z,8.66
2022-11-29T06:17:50.850Z,8.68
2022-11-29T06:18:50.839Z,8.66
2022-11-29T06:19:50.830Z,8.68
2022-11-29T06:20:50.818Z,8.66
2022-11-29T06:21:50.827Z,8.66
2022-11-29T06:22:50.799Z,8.66
2022-11-29T06:23:50.790Z,8.66
2022-11-29T06:24:50.872Z,8.65
2022-11-29T06:25:50.760Z,8.65
2022-11-29T06:26:50.772Z,8.66
2022-11-29T06:27:50.740Z,8.68
2022-11-29T06:28:50.729Z,8.68
2022-11-29T06:29:50.720Z,8.68
2022-11-29T06:30:50.710Z,8.69
2022-11-29T06:31:50.737Z,8.68
2022-11-29T06:32:50.708Z,8.68
2022-11-29T06:33:50.679Z,8.69
2022-11-29T06:34:50.661Z,8.71
2022-11-29T06:35:50.660Z,8.71
2022-11-29T06:36:50.646Z,8.71
2022-11-29T06:37:50.651Z,8.72
2022-11-29T06:38:50.619Z,8.71
2022-11-29T06:39:50.610Z,8.72
2022-11-29T06:40:50.595Z,8.72
2022-11-29T06:41:50.593Z,8.69
2022-11-29T06:42:50.598Z,8.71
2022-11-29T06:43:50.573Z,8.71
2022-11-29T06:44:50.558Z,8.72
2022-11-29T06:45:50.540Z,8.72
2022-11-29T06:46:50.556Z,8.71
2022-11-29T06:47:50.519Z,8.71
2022-11-29T06:48:50.531Z,8.69
2022-11-29T06:49:50.498Z,8.72
2022-11-29T06:50:50.482Z,8.71
2022-11-29T06:51:50.477Z,8.71
2022-11-29T06:52:50.461Z,8.71
2022-11-29T06:53:50.480Z,8.69
2022-11-29T06:54:50.442Z,8.69
2022-11-29T06:55:50.441Z,8.72
2022-11-29T06:56:50.490Z,8.71
2022-11-29T06:57:50.411Z,8.69
2022-11-29T06:58:50.421Z,8.71
2022-11-29T06:59:50.415Z,8.69
2022-11-29T07:00:50.408Z,8.71
2022-11-29T07:01:50.430Z,8.71
2022-11-29T07:02:50.351Z,8.71
2022-11-29T07:03:50.350Z,8.72
2022-11-29T07:04:50.495Z,8.72
2022-11-29T07:05:50.322Z,8.72
2022-11-29T07:06:50.302Z,8.72
2022-11-29T07:07:50.344Z,8.72
2022-11-29T07:08:50.290Z,8.73
2022-11-29T07:09:50.304Z,8.75
2022-11-29T07:10:50.275Z,8.75
2022-11-29T07:11:50.253Z,8.76
2022-11-29T07:12:50.244Z,8.76
2022-11-29T07:13:50.243Z,8.76
2022-11-29T07:14:50.250Z,8.76
2022-11-29T07:15:50.266Z,8.76
2022-11-29T07:16:54.433Z,8.78
2022-11-29T07:17:51.192Z,8.79
2022-11-29T07:18:50.182Z,8.79
2022-11-29T07:19:50.192Z,8.81
2022-11-29T07:20:50.162Z,8.81
2022-11-29T07:21:50.150Z,8.79
2022-11-29T07:22:50.144Z,8.81
2022-11-29T07:23:50.133Z,8.83
2022-11-29T07:24:50.144Z,8.84
2022-11-29T07:25:50.135Z,8.84
2022-11-29T07:26:52.866Z,8.86
2022-11-29T07:27:51.085Z,8.88
2022-11-29T07:28:50.075Z,8.88
2022-11-29T07:29:50.064Z,8.90
2022-11-29T07:30:50.073Z,8.87
2022-11-29T07:31:50.082Z,8.86
2022-11-29T07:32:52.051Z,8.88
2022-11-29T07:33:50.025Z,8.90
2022-11-29T07:34:50.007Z,8.88
2022-11-29T07:35:50.002Z,8.90
2022-11-29T07:36:50.016Z,8.90
2022-11-29T07:37:49.983Z,8.91
2022-11-29T07:38:49.969Z,8.91
2022-11-29T07:39:49.966Z,8.91
2022-11-29T07:40:49.944Z,8.91
2022-11-29T07:41:49.934Z,8.91
2022-11-29T07:42:49.936Z,8.91
2022-11-29T07:43:49.913Z,8.93
2022-11-29T07:44:49.898Z,8.94
2022-11-29T07:45:49.922Z,8.94
2022-11-29T07:46:49.933Z,8.94
2022-11-29T07:47:49.873Z,8.91
2022-11-29T07:48:49.884Z,8.87
2022-11-29T07:49:49.849Z,8.86
2022-11-29T07:50:49.835Z,8.84
2022-11-29T07:51:49.827Z,8.83
2022-11-29T07:52:49.815Z,8.83
2022-11-29T07:53:49.824Z,8.83
2022-11-29T07:54:49.795Z,8.84
2022-11-29T07:55:49.816Z,8.83
2022-11-29T07:56:49.774Z,8.84
2022-11-29T07:57:49.766Z,8.83
2022-11-29T07:58:49.764Z,8.81
2022-11-29T07:59:49.744Z,8.83
2022-11-29T08:00:49.814Z,8.86
2022-11-29T08:01:49.779Z,8.86
2022-11-29T08:02:49.707Z,8.87
2022-11-29T08:03:49.696Z,8.88
2022-11-29T08:04:49.686Z,8.90
2022-11-29T08:05:49.701Z,8.91
2022-11-29T08:06:49.658Z,8.94
2022-11-29T08:07:49.712Z,8.96
2022-11-29T08:08:49.639Z,8.99
2022-11-29T08:09:49.635Z,9.02
2022-11-29T08:10:49.618Z,9.02
2022-11-29T08:11:49.608Z,9.05
2022-11-29T08:12:49.598Z,9.09
2022-11-29T08:13:49.607Z,9.12
2022-11-29T08:14:49.569Z,9.13
2022-11-29T08:15:49.587Z,9.18
2022-11-29T08:16:49.595Z,9.18
2022-11-29T08:17:49.548Z,9.20
2022-11-29T08:18:49.539Z,9.20
2022-11-29T08:19:49.526Z,9.21
2022-11-29T08:20:49.507Z,9.23
2022-11-29T08:21:49.519Z,9.24
2022-11-29T08:22:49.489Z,9.25
2022-11-29T08:23:49.478Z,9.27
2022-11-29T08:24:49.469Z,9.28
2022-11-29T08:25:49.477Z,9.28
2022-11-29T08:26:49.438Z,9.31
2022-11-29T08:27:49.437Z,9.32
2022-11-29T08:28:49.419Z,9.34
2022-11-29T08:29:49.411Z,9.35
2022-11-29T08:30:49.416Z,9.38
2022-11-29T08:31:49.440Z,9.35
2022-11-29T08:32:51.588Z,9.38
2022-11-29T08:33:49.359Z,9.39
2022-11-29T08:34:49.351Z,9.39
2022-11-29T08:35:49.340Z,9.40
2022-11-29T08:36:49.352Z,9.43
2022-11-29T08:37:49.310Z,9.45
2022-11-29T08:38:49.310Z,9.43
2022-11-29T08:39:49.290Z,9.42
2022-11-29T08:40:49.290Z,9.38
2022-11-29T08:41:49.298Z,9.34
2022-11-29T08:42:49.274Z,9.35
2022-11-29T08:43:49.251Z,9.34
2022-11-29T08:44:49.242Z,9.35
2022-11-29T08:45:49.283Z,9.35
2022-11-29T08:46:49.221Z,9.38
2022-11-29T08:47:49.229Z,9.39
2022-11-29T08:48:49.191Z,9.42
2022-11-29T08:49:49.181Z,9.45
2022-11-29T08:50:49.180Z,9.45
2022-11-29T08:51:49.161Z,9.45
2022-11-29T08:52:49.171Z,9.43
2022-11-29T08:53:49.140Z,9.45
2022-11-29T08:54:49.122Z,9.43
2022-11-29T08:55:49.112Z,9.43
2022-11-29T08:57:31.076Z,9.40
2022-11-29T08:57:50.119Z,9.39
2022-11-29T08:58:49.083Z,9.40
2022-11-29T08:59:49.075Z,9.42
2022-11-29T09:00:49.091Z,9.40
2022-11-29T09:01:49.141Z,9.42
2022-11-29T09:02:49.043Z,9.40
2022-11-29T09:03:49.053Z,9.42
2022-11-29T09:04:49.022Z,9.38
2022-11-29T09:05:49.004Z,9.38
2022-11-29T09:06:48.994Z,9.38
2022-11-29T09:07:49.032Z,9.34
2022-11-29T09:08:48.993Z,9.32
2022-11-29T09:09:48.962Z,9.34
2022-11-29T09:10:48.953Z,9.35
2022-11-29T09:11:49.699Z,9.34
2022-11-29T09:12:48.933Z,9.38
2022-11-29T09:13:48.944Z,9.39
2022-11-29T09:14:48.911Z,9.39
2022-11-29T09:15:48.895Z,9.40
2022-11-29T09:16:48.929Z,9.39
2022-11-29T09:17:48.872Z,9.42
2022-11-29T09:18:51.837Z,9.39
2022-11-29T09:19:48.855Z,9.34
2022-11-29T09:20:48.844Z,9.38
2022-11-29T09:21:48.833Z,9.40
2022-11-29T09:22:48.823Z,9.38
2022-11-29T09:23:48.825Z,9.40
2022-11-29T09:24:48.823Z,9.42
2022-11-29T09:25:48.783Z,9.42
2022-11-29T09:26:48.774Z,9.40
2022-11-29T09:27:48.767Z,9.42
2022-11-29T09:28:48.754Z,9.43
2022-11-29T09:29:48.767Z,9.45
2022-11-29T09:30:48.731Z,9.48
2022-11-29T09:31:48.758Z,9.49
2022-11-29T09:32:48.713Z,9.48
2022-11-29T09:33:48.697Z,9.50
2022-11-29T09:34:48.762Z,9.53
2022-11-29T09:35:48.674Z,9.56
2022-11-29T09:36:48.675Z,9.52
2022-11-29T09:37:48.656Z,9.50
2022-11-29T09:38:48.644Z,9.48
2022-11-29T09:39:48.656Z,9.49
2022-11-29T09:40:48.616Z,9.52
2022-11-29T09:41:48.916Z,9.53
2022-11-29T09:42:48.605Z,9.50
2022-11-29T09:43:48.587Z,9.50
2022-11-29T09:44:48.789Z,9.49
2022-11-29T09:45:48.613Z,9.49
2022-11-29T09:46:48.557Z,9.52
2022-11-29T09:47:48.551Z,9.56
2022-11-29T09:48:48.537Z,9.56
2022-11-29T09:49:48.548Z,9.60
2022-11-29T09:50:48.506Z,9.60
2022-11-29T09:51:48.497Z,9.64
2022-11-29T09:52:48.489Z,9.66
2022-11-29T09:53:48.479Z,9.60
2022-11-29T09:54:48.551Z,9.63
2022-11-29T09:55:48.446Z,9.64
2022-11-29T09:56:48.447Z,9.68
2022-11-29T09:57:48.429Z,9.70
2022-11-29T09:58:48.417Z,9.73
2022-11-29T09:59:48.427Z,9.68
2022-11-29T10:00:48.470Z,9.64
2022-11-29T10:01:48.386Z,9.57
2022-11-29T10:02:48.384Z,9.60
2022-11-29T10:03:48.393Z,9.60
2022-11-29T10:04:48.368Z,9.61
2022-11-29T10:05:48.337Z,9.61
2022-11-29T10:06:48.328Z,9.56
2022-11-29T10:07:48.373Z,9.57
2022-11-29T10:08:48.330Z,9.57
2022-11-29T10:09:48.289Z,9.52
2022-11-29T10:10:48.284Z,9.53
2022-11-29T10:11:48.315Z,9.57
2022-11-29T10:12:48.259Z,9.56
2022-11-29T10:13:48.277Z,9.56
2022-11-29T10:14:48.397Z,9.50
2022-11-29T10:15:48.218Z,9.49
2022-11-29T10:16:48.424Z,9.46
2022-11-29T10:17:48.209Z,9.43
2022-11-29T10:18:48.202Z,9.43
2022-11-29T10:19:48.201Z,9.42
2022-11-29T10:20:49.345Z,9.43
2022-11-29T10:21:48.160Z,9.42
2022-11-29T10:22:48.148Z,9.40
2022-11-29T10:23:48.139Z,9.40
2022-11-29T10:24:48.341Z,9.39
2022-11-29T10:25:48.109Z,9.39
2022-11-29T10:26:48.106Z,9.38
2022-11-29T10:27:48.089Z,9.38
2022-11-29T10:28:48.079Z,9.35
2022-11-29T10:29:48.067Z,9.39
2022-11-29T10:30:48.153Z,9.42
2022-11-29T10:31:48.041Z,9.43
2022-11-29T10:32:48.037Z,9.42
2022-11-29T10:33:48.029Z,9.42
2022-11-29T10:34:48.169Z,9.38
2022-11-29T10:35:48.026Z,9.38
2022-11-29T10:36:48.020Z,9.38
2022-11-29T10:38:07.845Z,9.38
2022-11-29T10:38:48.959Z,9.38
2022-11-29T10:39:47.953Z,9.35
2022-11-29T10:40:47.960Z,9.38
2022-11-29T10:41:47.952Z,9.34
2022-11-29T10:42:47.927Z,9.34
2022-11-29T10:43:47.910Z,9.35
2022-11-29T10:44:47.983Z,9.34
2022-11-29T10:45:50.207Z,9.34
2022-11-29T10:46:47.902Z,9.32
2022-11-29T10:47:47.860Z,9.31
2022-11-29T10:48:47.851Z,9.31
2022-11-29T10:49:47.841Z,9.31
2022-11-29T10:50:47.830Z,9.30
2022-11-29T10:51:47.817Z,9.30
2022-11-29T10:52:47.848Z,9.31
2022-11-29T10:53:47.799Z,9.31
2022-11-29T10:54:48.238Z,9.32
2022-11-29T10:55:47.781Z,9.32
2022-11-29T10:56:47.770Z,9.30
2022-11-29T10:57:47.772Z,9.30
2022-11-29T10:58:47.742Z,9.28
2022-11-29T10:59:47.731Z,9.27
2022-11-29T11:00:47.725Z,9.28
2022-11-29T11:01:47.743Z,9.24
2022-11-29T11:02:47.728Z,9.23
2022-11-29T11:03:52.521Z,9.23
2022-11-29T11:04:48.775Z,9.23
2022-11-29T11:05:47.681Z,9.24
2022-11-29T11:06:47.667Z,9.21
2022-11-29T11:07:47.693Z,9.24
2022-11-29T11:08:47.659Z,9.25
2022-11-29T11:09:47.624Z,9.23
2022-11-29T11:10:53.051Z,9.25
2022-11-29T11:11:48.601Z,9.27
2022-11-29T11:12:47.590Z,9.25
2022-11-29T11:13:47.602Z,9.24
2022-11-29T11:14:47.888Z,9.24
2022-11-29T11:15:47.564Z,9.27
2022-11-29T11:16:47.591Z,9.28
2022-11-29T11:17:47.553Z,9.28
2022-11-29T11:18:47.525Z,9.28
2022-11-29T11:19:47.516Z,9.28
2022-11-29T11:20:47.500Z,9.25
2022-11-29T11:21:47.486Z,9.25
2022-11-29T11:22:47.500Z,9.28
2022-11-29T11:23:47.465Z,9.21
2022-11-29T11:24:47.704Z,9.20
2022-11-29T11:25:47.444Z,9.21
2022-11-29T11:26:47.442Z,9.21
2022-11-29T11:27:47.457Z,9.18
2022-11-29T11:28:47.415Z,9.13
2022-11-29T11:29:47.404Z,9.15
2022-11-29T11:30:47.444Z,9.16
2022-11-29T11:31:47.383Z,9.16
2022-11-29T11:32:47.385Z,9.15
2022-11-29T11:33:47.354Z,9.18
2022-11-29T11:34:47.601Z,9.20
2022-11-29T11:35:47.334Z,9.15
2022-11-29T11:36:47.327Z,9.12
2022-11-29T11:37:47.333Z,9.13
2022-11-29T11:38:47.305Z,9.12
2022-11-29T11:39:47.328Z,9.10
2022-11-29T11:40:47.283Z,9.09
2022-11-29T11:41:47.264Z,9.09
2022-11-29T11:42:47.274Z,9.10
2022-11-29T11:43:47.248Z,9.12
2022-11-29T11:44:47.945Z,9.13
2022-11-29T11:45:47.289Z,9.13
2022-11-29T11:46:47.251Z,9.10
2022-11-29T11:47:47.227Z,9.12
2022-11-29T11:48:47.195Z,9.12
2022-11-29T11:49:47.176Z,9.10
2022-11-29T11:50:47.176Z,9.05
2022-11-29T11:51:47.157Z,9.02
2022-11-29T11:52:50.734Z,9.05
2022-11-29T11:53:47.137Z,9.04
2022-11-29T11:54:47.285Z,9.01
2022-11-29T11:55:47.116Z,9.01
2022-11-29T11:56:47.099Z,9.01
2022-11-29T11:57:47.109Z,8.99
2022-11-29T11:58:47.078Z,8.96
2022-11-29T11:59:47.066Z,8.96
2022-11-29T12:01:03.335Z,8.93
2022-11-29T12:01:48.067Z,8.93
2022-11-29T12:02:47.133Z,8.93
2022-11-29T12:03:47.046Z,8.94
2022-11-29T12:04:47.296Z,8.94
2022-11-29T12:05:46.999Z,8.94
2022-11-29T12:06:46.996Z,8.93
2022-11-29T12:08:13.177Z,8.90
2022-11-29T12:08:48.008Z,8.88
2022-11-29T12:09:46.956Z,8.88
2022-11-29T12:10:46.949Z,8.91
2022-11-29T12:11:46.960Z,8.91
2022-11-29T12:12:46.927Z,8.91
2022-11-29T12:13:46.917Z,8.90
2022-11-29T12:14:47.223Z,8.87
2022-11-29T12:15:46.948Z,8.88
2022-11-29T12:16:46.899Z,8.87
2022-11-29T12:17:46.890Z,8.86
2022-11-29T12:18:46.868Z,8.88
2022-11-29T12:19:46.848Z,8.90
2022-11-29T12:20:46.848Z,8.91
2022-11-29T12:21:46.849Z,8.93
2022-11-29T12:22:48.590Z,8.88
2022-11-29T12:23:46.821Z,8.88
2022-11-29T12:24:47.250Z,8.87
2022-11-29T12:25:46.837Z,8.87
2022-11-29T12:26:56.889Z,8.87
2022-11-29T12:27:47.767Z,8.88
2022-11-29T12:28:46.755Z,8.87
2022-11-29T12:29:46.740Z,8.88
2022-11-29T12:30:46.783Z,8.88
2022-11-29T12:31:46.748Z,8.90
2022-11-29T12:32:46.719Z,8.91
2022-11-29T12:33:46.710Z,8.90
2022-11-29T12:34:47.086Z,8.90
2022-11-29T12:35:46.701Z,8.88
2022-11-29T12:36:46.673Z,8.91
2022-11-29T12:37:46.678Z,8.91
2022-11-29T12:38:46.730Z,8.91
2022-11-29T12:39:46.639Z,8.91
2022-11-29T12:40:46.631Z,8.91
2022-11-29T12:41:52.438Z,8.93
2022-11-29T12:42:47.620Z,8.93
2022-11-29T12:43:46.601Z,8.94
2022-11-29T12:44:46.776Z,8.93
2022-11-29T12:45:46.581Z,8.94
2022-11-29T12:46:46.606Z,8.93
2022-11-29T12:47:51.706Z,8.93
2022-11-29T12:48:47.562Z,8.93
2022-11-29T12:49:46.539Z,8.94
2022-11-29T12:50:46.532Z,8.94
2022-11-29T12:51:46.513Z,8.94
2022-11-29T12:52:46.501Z,8.94
2022-11-29T12:53:46.512Z,8.94
2022-11-29T12:54:46.807Z,8.97
2022-11-29T12:55:46.470Z,8.96
2022-11-29T12:56:46.460Z,8.97
2022-11-29T12:57:46.450Z,9.01
2022-11-29T12:58:46.523Z,9.01
2022-11-29T12:59:46.431Z,9.01
2022-11-29T13:00:46.412Z,9.02
2022-11-29T13:01:46.439Z,8.97
2022-11-29T13:02:46.422Z,8.99
2022-11-29T13:03:46.389Z,8.99
2022-11-29T13:04:46.584Z,8.99
2022-11-29T13:05:46.362Z,9.01
2022-11-29T13:06:46.351Z,9.04
2022-11-29T13:07:46.403Z,9.05
2022-11-29T13:08:46.352Z,9.10
2022-11-29T13:09:46.534Z,9.12
2022-11-29T13:10:46.304Z,9.10
2022-11-29T13:11:46.301Z,9.09
2022-11-29T13:12:46.283Z,9.06
2022-11-29T13:13:46.282Z,9.06
2022-11-29T13:14:46.282Z,9.04
2022-11-29T13:15:46.362Z,9.05
2022-11-29T13:16:46.329Z,9.02
2022-11-29T13:17:46.234Z,9.04
2022-11-29T13:18:46.214Z,9.05